Time;durP1;ratioP1;P1;durP2;ratioP2;P2;SDS_P1;SDS_P2;PMS_P1;PMS_P2;Temp;Humidity;BMP_temperature;BMP_pressure;BME280_temperature;BME280_humidity;BME280_pressure;Samples;Min_cycle;Max_cycle;Signal;HPM_P1;HPM_P2
2022/04/16 00:01:55;;;;;;;12.97;6.23;;;6.50;97.30;;;;;;4975984;28;20238;-79
2022/04/16 00:04:21;;;;;;;12.20;6.00;;;6.40;97.30;;;;;;4976529;28;20442;-80
2022/04/16 00:06:47;;;;;;;13.93;5.80;;;6.40;97.30;;;;;;4976227;28;20418;-79
2022/04/16 00:09:13;;;;;;;11.43;5.40;;;6.40;97.30;;;;;;4976339;28;20925;-79
2022/04/16 00:11:38;;;;;;;12.03;5.93;;;6.40;97.30;;;;;;4977716;28;20606;-79
2022/04/16 00:14:04;;;;;;;8.60;4.90;;;6.40;97.30;;;;;;4977008;28;20233;-79
2022/04/16 00:16:31;;;;;;;10.17;5.60;;;6.40;97.30;;;;;;4977138;28;20211;-79
2022/04/16 00:18:57;;;;;;;11.27;5.07;;;6.30;97.30;;;;;;4976230;28;20445;-79
2022/04/16 00:21:23;;;;;;;12.03;6.90;;;6.30;97.30;;;;;;4976404;28;20931;-79
2022/04/16 00:23:49;;;;;;;11.30;5.27;;;6.30;97.30;;;;;;4977313;28;20210;-78
2022/04/16 00:26:15;;;;;;;12.43;5.97;;;6.30;97.30;;;;;;4975749;28;20433;-79
2022/04/16 00:28:41;;;;;;;9.77;5.70;;;6.30;97.30;;;;;;4976096;28;20422;-78
2022/04/16 00:31:06;;;;;;;8.10;5.30;;;6.30;97.30;;;;;;4976435;28;20241;-79
2022/04/16 00:33:33;;;;;;;13.67;5.20;;;6.30;97.30;;;;;;4976151;28;20265;-80
2022/04/16 00:36:02;;;;;;;12.23;5.50;;;6.20;97.30;;;;;;4976478;28;20237;-78
2022/04/16 00:38:28;;;;;;;12.60;5.23;;;6.20;97.30;;;;;;4978014;28;20421;-80
2022/04/16 00:40:53;;;;;;;7.63;5.07;;;6.20;97.30;;;;;;4976247;28;20422;-79
2022/04/16 00:43:21;;;;;;;11.67;5.50;;;6.20;97.30;;;;;;4975899;28;20191;-79
2022/04/16 00:45:47;;;;;;;10.87;5.70;;;6.20;97.30;;;;;;4977888;28;20261;-79
2022/04/16 00:48:13;;;;;;;8.07;5.50;;;6.20;97.30;;;;;;4976439;28;20549;-78
2022/04/16 00:50:39;;;;;;;8.37;5.20;;;6.20;97.30;;;;;;4976852;28;21090;-79
2022/04/16 00:53:05;;;;;;;8.87;5.40;;;6.20;97.30;;;;;;4976215;28;20673;-79
2022/04/16 00:55:36;;;;;;;7.77;4.87;;;6.20;97.30;;;;;;4976036;28;20437;-80
2022/04/16 00:58:02;;;;;;;16.23;5.50;;;6.20;97.30;;;;;;4975219;28;20820;-80
2022/04/16 01:00:27;;;;;;;16.03;5.20;;;6.20;97.30;;;;;;4975389;28;20476;-79
2022/04/16 01:02:55;;;;;;;9.20;3.93;;;6.20;97.30;;;;;;4975378;28;20497;-80
2022/04/16 01:05:21;;;;;;;9.33;4.80;;;6.20;97.30;;;;;;5007929;28;20688;-80
2022/04/16 01:07:57;;;;;;;10.60;4.73;;;6.20;97.30;;;;;;4975729;28;20418;-79
2022/04/16 01:10:29;;;;;;;8.47;4.67;;;6.20;97.30;;;;;;5008502;28;20472;-79
2022/04/16 01:12:56;;;;;;;11.87;4.70;;;6.20;97.30;;;;;;4976063;28;20461;-79
2022/04/16 01:15:22;;;;;;;11.53;4.60;;;6.20;97.30;;;;;;4974810;28;20838;-80
2022/04/16 01:17:48;;;;;;;9.17;4.47;;;6.10;97.30;;;;;;4975834;28;20422;-79
2022/04/16 01:20:14;;;;;;;7.90;4.53;;;6.10;97.30;;;;;;4975208;28;20560;-79
2022/04/16 01:22:40;;;;;;;13.50;5.10;;;6.10;97.30;;;;;;4976060;28;20460;-79
2022/04/16 01:25:07;;;;;;;9.60;4.07;;;6.10;97.30;;;;;;4975331;28;20438;-80
2022/04/16 01:27:35;;;;;;;14.77;4.10;;;6.00;97.30;;;;;;4975671;28;20604;-80
2022/04/16 01:30:04;;;;;;;8.20;4.00;;;6.00;97.30;;;;;;4976378;28;20452;-79
2022/04/16 01:32:32;;;;;;;8.47;3.73;;;5.90;97.30;;;;;;4976213;28;20469;-79
2022/04/16 01:34:59;;;;;;;9.50;4.00;;;5.90;97.30;;;;;;4975708;28;20460;-79
2022/04/16 01:37:24;;;;;;;8.17;4.27;;;5.80;97.30;;;;;;4975277;28;20426;-79
2022/04/16 01:39:50;;;;;;;6.30;3.60;;;5.80;97.30;;;;;;4975928;28;20480;-79
2022/04/16 01:42:15;;;;;;;6.67;4.13;;;5.70;97.30;;;;;;4976053;28;20278;-79
2022/04/16 01:44:43;;;;;;;7.83;3.57;;;5.70;97.30;;;;;;4975568;28;20198;-79
2022/04/16 01:47:10;;;;;;;7.90;3.90;;;5.60;97.30;;;;;;4975991;28;20179;-78
2022/04/16 01:49:36;;;;;;;8.17;4.10;;;5.60;97.30;;;;;;4976285;28;20432;-78
2022/04/16 01:52:02;;;;;;;5.90;3.30;;;5.60;97.30;;;;;;4975570;28;20465;-80
2022/04/16 01:54:27;;;;;;;13.50;4.23;;;5.50;97.30;;;;;;4975793;28;20686;-79
2022/04/16 01:56:53;;;;;;;8.80;3.90;;;5.50;97.30;;;;;;4975669;28;20440;-79
2022/04/16 01:59:19;;;;;;;7.40;3.80;;;5.40;97.30;;;;;;4976213;28;20581;-79
2022/04/16 02:01:45;;;;;;;7.73;3.80;;;5.30;97.30;;;;;;4975137;28;20230;-80
2022/04/16 02:04:11;;;;;;;8.13;4.33;;;5.30;97.30;;;;;;4975545;28;20469;-78
2022/04/16 02:06:36;;;;;;;9.90;3.30;;;5.20;97.30;;;;;;4976367;28;20179;-79
2022/04/16 02:09:03;;;;;;;6.63;3.17;;;5.10;97.30;;;;;;4976437;28;21064;-79
2022/04/16 02:11:29;;;;;;;5.63;3.30;;;4.90;97.30;;;;;;4976253;28;20596;-79
2022/04/16 02:13:55;;;;;;;8.03;3.30;;;4.70;97.30;;;;;;4976829;28;20524;-79
2022/04/16 02:16:20;;;;;;;4.33;2.90;;;4.60;97.30;;;;;;4976171;28;20425;-79
2022/04/16 02:18:46;;;;;;;5.53;3.00;;;4.50;97.30;;;;;;4976023;28;20182;-79
2022/04/16 02:21:12;;;;;;;6.37;3.40;;;4.40;97.30;;;;;;4977416;28;20185;-78
2022/04/16 02:23:38;;;;;;;4.80;3.13;;;4.30;97.30;;;;;;4976011;28;20422;-79
2022/04/16 02:26:06;;;;;;;8.77;3.90;;;4.20;97.30;;;;;;4976100;28;20186;-79
2022/04/16 02:28:32;;;;;;;6.97;3.50;;;4.10;97.30;;;;;;4975907;28;20966;-78
2022/04/16 02:30:58;;;;;;;5.73;3.30;;;4.00;97.30;;;;;;4975205;28;20589;-78
2022/04/16 02:33:23;;;;;;;4.30;2.67;;;4.00;97.30;;;;;;4975605;28;20222;-78
2022/04/16 02:35:49;;;;;;;5.50;2.90;;;3.90;97.30;;;;;;4975788;28;20178;-78
2022/04/16 02:38:15;;;;;;;6.57;2.90;;;3.80;97.30;;;;;;4974575;28;20210;-79
2022/04/16 02:40:40;;;;;;;15.30;3.90;;;3.70;97.30;;;;;;4977458;28;20185;-79
2022/04/16 02:43:06;;;;;;;4.07;3.30;;;3.70;97.30;;;;;;4979286;28;20699;-79
2022/04/16 02:48:15;;;;;;;6.90;3.13;;;3.60;97.30;;;;;;4980923;28;20703;-79
2022/04/16 02:50:41;;;;;;;5.10;2.90;;;3.60;97.30;;;;;;4978754;28;20417;-79
2022/04/16 02:53:07;;;;;;;6.03;4.07;;;3.60;97.30;;;;;;4977491;28;20233;-79
2022/04/16 02:55:33;;;;;;;3.70;2.67;;;3.50;97.30;;;;;;4979149;28;20281;-78
2022/04/16 02:57:58;;;;;;;4.73;3.40;;;3.50;97.30;;;;;;4977398;28;20221;-79
2022/04/16 03:00:26;;;;;;;7.30;3.43;;;3.50;97.30;;;;;;4977516;28;20182;-79
2022/04/16 03:02:52;;;;;;;5.63;3.20;;;3.40;97.30;;;;;;4977728;28;20264;-79
2022/04/16 03:05:18;;;;;;;10.23;3.80;;;3.30;97.30;;;;;;4978069;28;20815;-78
2022/04/16 03:07:44;;;;;;;6.23;2.63;;;3.30;97.30;;;;;;4979039;28;20460;-79
2022/04/16 03:10:11;;;;;;;8.60;2.70;;;3.20;97.30;;;;;;4978418;28;20987;-78
2022/04/16 03:12:48;;;;;;;7.13;3.30;;;3.20;97.30;;;;;;4977640;28;20210;-78
2022/04/16 03:18:00;;;;;;;5.77;2.70;;;3.10;97.30;;;;;;4979424;28;20565;-79
2022/04/16 03:20:27;;;;;;;2.57;2.20;;;3.10;97.30;;;;;;5010772;28;20496;-78
2022/04/16 03:22:53;;;;;;;7.97;2.90;;;3.00;97.30;;;;;;4977439;28;20422;-79
2022/04/16 03:25:19;;;;;;;4.33;2.87;;;3.00;97.30;;;;;;4977144;28;20442;-78
2022/04/16 03:27:45;;;;;;;3.03;2.60;;;2.90;97.30;;;;;;4977490;28;20189;-78
2022/04/16 03:30:11;;;;;;;6.13;3.10;;;2.90;97.30;;;;;;4976246;28;20179;-79
2022/04/16 03:32:40;;;;;;;2.80;2.57;;;2.80;97.30;;;;;;4976474;28;20465;-78
2022/04/16 03:35:07;;;;;;;6.23;3.67;;;2.80;97.30;;;;;;4976226;28;20262;-78
2022/04/16 03:37:36;;;;;;;5.20;3.20;;;2.70;97.30;;;;;;4978133;28;20421;-78
2022/04/16 03:40:06;;;;;;;6.70;3.10;;;2.70;97.30;;;;;;4976112;28;20417;-79
2022/04/16 03:42:32;;;;;;;6.50;3.00;;;2.70;97.30;;;;;;4975829;28;20422;-78
2022/04/16 03:45:00;;;;;;;5.53;3.23;;;2.70;97.30;;;;;;4977713;28;20437;-78
2022/04/16 03:47:26;;;;;;;7.93;3.87;;;2.70;97.30;;;;;;4976003;28;20422;-78
2022/04/16 03:49:52;;;;;;;6.07;3.90;;;2.70;97.30;;;;;;4976434;28;20473;-78
2022/04/16 03:52:17;;;;;;;7.00;4.33;;;2.70;97.30;;;;;;4977499;28;20457;-78
2022/04/16 04:00:17;;;;;;;11.23;4.50;;;2.90;97.30;;;;;;4978411;28;20449;-78
2022/04/16 04:02:43;;;;;;;10.60;4.20;;;2.90;97.30;;;;;;4976710;28;20477;-79
2022/04/16 04:05:08;;;;;;;14.00;4.70;;;2.90;97.30;;;;;;4976003;28;20473;-78
2022/04/16 04:07:34;;;;;;;8.00;3.47;;;3.00;97.30;;;;;;4978164;28;20175;-78
2022/04/16 04:10:00;;;;;;;13.53;5.30;;;3.00;97.30;;;;;;4976586;28;20221;-78
2022/04/16 04:12:26;;;;;;;21.37;6.00;;;3.00;97.30;;;;;;4978167;28;20207;-78
2022/04/16 04:14:52;;;;;;;8.47;3.77;;;3.10;97.30;;;;;;4977795;28;20205;-78
2022/04/16 04:17:17;;;;;;;13.30;4.40;;;3.10;97.30;;;;;;4976158;28;20191;-77
2022/04/16 04:19:45;;;;;;;15.20;6.27;;;3.10;97.30;;;;;;4978450;28;20414;-79
2022/04/16 04:22:12;;;;;;;8.20;3.53;;;3.10;97.30;;;;;;4976595;28;20422;-79
2022/04/16 04:24:39;;;;;;;7.93;4.30;;;3.10;97.30;;;;;;4976234;28;20438;-77
2022/04/16 04:27:06;;;;;;;3.20;2.87;;;3.20;97.30;;;;;;4975917;28;20920;-79
2022/04/16 04:29:32;;;;;;;7.57;4.40;;;3.20;97.30;;;;;;4975777;28;20413;-79
2022/04/16 04:31:58;;;;;;;4.63;3.37;;;3.20;97.30;;;;;;4975504;28;20461;-78
2022/04/16 04:34:24;;;;;;;8.97;3.90;;;3.30;97.30;;;;;;4975480;28;20480;-79
2022/04/16 04:36:50;;;;;;;6.37;3.27;;;3.30;97.30;;;;;;4975756;28;20266;-78
2022/04/16 04:39:16;;;;;;;4.77;3.10;;;3.30;97.30;;;;;;4977390;28;20434;-79
2022/04/16 04:41:43;;;;;;;4.90;3.00;;;3.30;97.30;;;;;;4976628;28;20179;-79
2022/04/16 04:44:18;;;;;;;9.00;4.20;;;3.30;97.30;;;;;;4975671;28;20289;-78
2022/04/16 04:46:43;;;;;;;6.43;3.40;;;3.40;97.30;;;;;;4976955;28;20985;-78
2022/04/16 04:49:11;;;;;;;7.23;3.40;;;3.40;97.30;;;;;;4976519;28;20410;-79
2022/04/16 04:51:37;;;;;;;4.67;3.23;;;3.40;97.30;;;;;;4975490;28;20339;-79
2022/04/16 04:54:03;;;;;;;10.53;3.50;;;3.40;97.30;;;;;;4976889;28;20517;-79
2022/04/16 04:56:29;;;;;;;4.33;2.90;;;3.40;97.30;;;;;;4977640;28;20442;-79
2022/04/16 04:58:55;;;;;;;4.57;3.07;;;3.40;97.30;;;;;;4975432;28;20414;-78
2022/04/16 05:01:21;;;;;;;5.33;3.07;;;3.40;97.30;;;;;;4974403;28;21054;-78
2022/04/16 05:03:47;;;;;;;4.97;3.20;;;3.50;97.30;;;;;;4973728;28;20430;-78
2022/04/16 05:06:13;;;;;;;7.00;3.20;;;3.50;97.30;;;;;;4975059;28;20187;-77
2022/04/16 05:08:38;;;;;;;7.23;3.17;;;3.50;97.30;;;;;;4975032;28;20557;-79
2022/04/16 05:11:04;;;;;;;6.40;3.37;;;3.50;97.30;;;;;;4976763;28;20181;-78
2022/04/16 05:13:29;;;;;;;4.57;3.20;;;3.50;97.30;;;;;;4974565;28;20213;-78
2022/04/16 05:15:55;;;;;;;7.00;3.07;;;3.50;97.30;;;;;;4974294;28;20261;-78
2022/04/16 05:18:20;;;;;;;5.03;2.80;;;3.50;97.30;;;;;;4973814;28;20175;-78
2022/04/16 05:20:46;;;;;;;4.20;3.13;;;3.50;97.30;;;;;;4974630;28;20181;-79
2022/04/16 05:23:12;;;;;;;5.33;3.17;;;3.50;97.30;;;;;;4973901;28;20237;-78
2022/04/16 05:25:38;;;;;;;4.43;3.00;;;3.50;97.30;;;;;;4974767;28;20533;-79
2022/04/16 05:28:03;;;;;;;5.00;3.17;;;3.50;97.30;;;;;;4973809;28;20457;-78
2022/04/16 05:30:34;;;;;;;5.43;3.00;;;3.60;97.30;;;;;;4973879;28;20179;-79
2022/04/16 05:33:05;;;;;;;11.30;3.10;;;3.60;97.30;;;;;;4973190;28;20206;-78
2022/04/16 05:35:31;;;;;;;4.73;3.63;;;3.60;97.30;;;;;;4974201;28;20437;-78
2022/04/16 05:37:57;;;;;;;8.00;3.40;;;3.60;97.30;;;;;;4973806;28;20425;-78
2022/04/16 05:40:22;;;;;;;6.33;4.23;;;3.60;97.30;;;;;;4975183;28;20175;-78
2022/04/16 05:42:48;;;;;;;4.73;3.67;;;3.60;97.30;;;;;;4976831;28;20182;-79
2022/04/16 05:45:16;;;;;;;4.47;3.10;;;3.50;97.30;;;;;;4977727;28;20198;-79
2022/04/16 05:47:43;;;;;;;16.43;3.50;;;3.60;97.30;;;;;;4978735;28;20202;-79
2022/04/16 05:50:09;;;;;;;5.47;3.30;;;3.60;97.30;;;;;;4977109;28;21021;-79
2022/04/16 05:52:36;;;;;;;5.20;3.17;;;3.60;97.30;;;;;;4976935;28;20520;-79
2022/04/16 05:55:02;;;;;;;5.20;3.20;;;3.60;97.30;;;;;;4977469;28;20634;-79
2022/04/16 05:57:29;;;;;;;13.67;3.23;;;3.70;97.30;;;;;;5008836;28;20422;-79
2022/04/16 05:59:58;;;;;;;6.07;3.67;;;3.70;97.30;;;;;;4977056;28;20572;-79
2022/04/16 06:02:24;;;;;;;5.47;3.50;;;3.70;97.30;;;;;;4975956;28;20527;-79
2022/04/16 06:04:49;;;;;;;3.23;2.97;;;3.70;97.30;;;;;;4976274;28;20605;-78
2022/04/16 06:07:15;;;;;;;5.70;3.73;;;3.70;97.30;;;;;;4975997;28;20510;-79
2022/04/16 06:09:41;;;;;;;7.30;3.70;;;3.70;97.30;;;;;;4975704;28;20190;-78
2022/04/16 06:12:09;;;;;;;4.63;3.30;;;3.70;97.30;;;;;;4976806;28;20963;-78
2022/04/16 06:14:35;;;;;;;5.83;3.23;;;3.70;97.30;;;;;;4977152;28;20704;-79
2022/04/16 06:17:00;;;;;;;5.40;3.20;;;3.70;97.30;;;;;;4978799;28;20422;-78
2022/04/16 06:19:26;;;;;;;3.83;3.23;;;3.80;97.30;;;;;;4979062;28;20424;-78
2022/04/16 06:21:52;;;;;;;3.30;3.10;;;3.90;97.30;;;;;;4978876;28;20265;-79
2022/04/16 06:24:17;;;;;;;3.40;3.03;;;3.90;97.30;;;;;;4979531;28;20194;-78
2022/04/16 06:26:45;;;;;;;6.53;3.00;;;3.90;97.30;;;;;;4979518;28;20228;-79
2022/04/16 06:29:11;;;;;;;3.50;3.10;;;4.00;97.30;;;;;;4979692;28;20175;-80
2022/04/16 06:31:36;;;;;;;5.20;3.57;;;4.00;97.30;;;;;;4978632;28;20476;-80
2022/04/16 06:34:02;;;;;;;3.40;3.10;;;4.00;97.30;;;;;;4979667;28;20437;-79
2022/04/16 06:36:27;;;;;;;4.40;3.10;;;4.10;97.30;;;;;;4979929;28;20207;-78
2022/04/16 06:38:53;;;;;;;4.03;3.23;;;4.10;97.30;;;;;;4979174;28;20185;-78
2022/04/16 06:41:18;;;;;;;5.10;3.27;;;4.20;97.30;;;;;;4978591;28;20189;-79
2022/04/16 06:43:44;;;;;;;7.27;2.90;;;4.20;97.30;;;;;;4980376;28;20209;-79
2022/04/16 06:46:10;;;;;;;7.30;3.13;;;4.30;97.30;;;;;;4980185;28;20174;-78
2022/04/16 06:48:35;;;;;;;4.17;3.17;;;4.30;97.30;;;;;;4978588;28;20241;-78
2022/04/16 06:51:01;;;;;;;3.97;3.30;;;4.30;97.30;;;;;;4977899;28;20237;-79
2022/04/16 06:53:27;;;;;;;5.27;3.30;;;4.40;97.30;;;;;;4978686;28;20210;-79
2022/04/16 06:55:52;;;;;;;5.77;3.30;;;4.50;97.30;;;;;;4979650;28;20186;-79
2022/04/16 06:58:18;;;;;;;4.43;3.00;;;4.50;97.30;;;;;;4978770;28;20907;-78
2022/04/16 07:00:43;;;;;;;11.63;3.90;;;4.60;97.30;;;;;;4978570;28;20661;-79
2022/04/16 07:03:09;;;;;;;3.80;3.03;;;4.70;97.30;;;;;;4978913;28;20182;-79
2022/04/16 07:05:34;;;;;;;8.97;4.30;;;4.80;97.30;;;;;;4978911;28;20249;-79
2022/04/16 07:08:00;;;;;;;6.67;3.93;;;4.90;97.30;;;;;;4979941;28;20241;-80
2022/04/16 07:10:26;;;;;;;4.63;3.03;;;5.00;97.30;;;;;;4978939;28;20277;-80
2022/04/16 07:12:51;;;;;;;3.27;2.53;;;5.10;97.30;;;;;;4979303;28;20210;-79
2022/04/16 07:15:17;;;;;;;3.90;3.20;;;5.10;97.30;;;;;;4979274;28;20222;-79
2022/04/16 07:17:45;;;;;;;5.37;2.77;;;5.00;97.30;;;;;;4979225;28;20186;-78
2022/04/16 07:20:10;;;;;;;5.77;3.03;;;5.10;97.30;;;;;;4979162;28;20185;-78
2022/04/16 07:22:37;;;;;;;3.50;2.90;;;5.10;97.30;;;;;;4978598;28;20422;-79
2022/04/16 07:25:04;;;;;;;7.40;2.87;;;5.20;97.30;;;;;;4995074;28;20477;-79
2022/04/16 07:27:31;;;;;;;4.40;3.57;;;5.20;97.30;;;;;;4978807;28;21022;-78
2022/04/16 07:29:58;;;;;;;5.20;3.77;;;5.10;97.30;;;;;;4978945;28;20489;-79
2022/04/16 07:32:25;;;;;;;3.73;3.13;;;5.00;97.30;;;;;;4979092;28;20508;-79
2022/04/16 07:34:51;;;;;;;5.47;3.30;;;5.00;97.30;;;;;;4978259;28;20437;-79
2022/04/16 07:37:17;;;;;;;3.77;2.87;;;4.90;97.30;;;;;;4978414;28;20422;-78
2022/04/16 07:39:42;;;;;;;4.33;2.97;;;4.90;97.30;;;;;;4979064;28;20234;-79
2022/04/16 07:42:08;;;;;;;3.33;3.17;;;4.90;97.30;;;;;;4978703;28;20731;-79
2022/04/16 07:44:35;;;;;;;3.70;3.30;;;5.10;97.30;;;;;;4979272;28;20199;-80
2022/04/16 07:47:00;;;;;;;10.63;3.43;;;5.30;97.30;;;;;;4980869;28;20189;-79
2022/04/16 07:49:26;;;;;;;7.87;3.13;;;5.70;97.30;;;;;;4979660;28;20434;-79
2022/04/16 07:51:51;;;;;;;2.80;2.60;;;6.00;97.30;;;;;;4978486;28;20214;-79
2022/04/16 07:54:17;;;;;;;4.20;3.00;;;6.20;96.40;;;;;;4977864;28;20195;-79
2022/04/16 07:56:43;;;;;;;5.80;2.13;;;6.30;96.00;;;;;;4979914;28;20229;-79
2022/04/16 07:59:08;;;;;;;6.30;3.00;;;6.40;95.70;;;;;;4979181;28;20171;-79
2022/04/16 08:01:34;;;;;;;2.37;2.20;;;6.60;95.30;;;;;;4978882;28;20230;-78
2022/04/16 08:03:59;;;;;;;3.50;2.60;;;6.70;94.70;;;;;;4978926;28;20264;-79
2022/04/16 08:06:25;;;;;;;2.93;2.20;;;6.80;93.90;;;;;;4978096;28;20553;-80
2022/04/16 08:08:52;;;;;;;3.33;2.70;;;6.90;93.80;;;;;;4978434;28;20236;-79
2022/04/16 08:11:18;;;;;;;3.93;2.63;;;7.00;93.20;;;;;;4978795;28;20200;-79
2022/04/16 08:13:43;;;;;;;2.80;1.90;;;7.10;93.00;;;;;;4978472;28;20481;-79
2022/04/16 08:16:09;;;;;;;5.00;3.00;;;6.90;92.60;;;;;;4979811;28;20237;-77
2022/04/16 08:18:34;;;;;;;2.87;2.03;;;6.90;93.30;;;;;;4979450;28;20197;-80
2022/04/16 08:21:00;;;;;;;3.13;2.13;;;7.10;92.80;;;;;;4979428;28;20182;-79
2022/04/16 08:23:26;;;;;;;2.27;2.10;;;7.20;93.10;;;;;;4980912;28;20178;-80
2022/04/16 08:25:52;;;;;;;4.73;1.90;;;7.20;91.60;;;;;;4979372;28;20232;-78
2022/04/16 08:28:18;;;;;;;3.10;2.00;;;7.40;92.00;;;;;;4978530;28;20437;-79
2022/04/16 08:30:44;;;;;;;3.87;2.17;;;7.40;92.00;;;;;;4979376;28;20193;-80
2022/04/16 08:33:16;;;;;;;4.27;2.10;;;7.70;93.20;;;;;;4980352;28;20465;-79
2022/04/16 08:35:43;;;;;;;5.20;2.10;;;8.00;92.30;;;;;;4979350;28;20195;-80
2022/04/16 08:38:10;;;;;;;5.70;2.30;;;8.10;91.10;;;;;;4979625;28;20410;-80
2022/04/16 08:40:36;;;;;;;2.67;2.23;;;8.30;91.30;;;;;;4976792;28;20430;-79
2022/04/16 08:43:02;;;;;;;3.03;2.13;;;8.40;90.30;;;;;;4978524;28;20449;-79
2022/04/16 08:45:32;;;;;;;3.37;2.20;;;8.40;90.20;;;;;;4976157;28;20473;-80
2022/04/16 08:47:58;;;;;;;2.33;2.17;;;8.50;89.00;;;;;;4976268;28;20452;-80
2022/04/16 08:50:24;;;;;;;2.60;1.80;;;8.70;89.80;;;;;;4977694;28;20426;-79
2022/04/16 08:52:50;;;;;;;10.30;2.70;;;8.60;88.50;;;;;;4977262;28;20461;-80
2022/04/16 08:55:16;;;;;;;2.33;2.13;;;8.60;90.60;;;;;;4975748;28;20950;-79
2022/04/16 08:57:41;;;;;;;4.93;1.90;;;8.70;88.50;;;;;;4976366;28;20489;-80
2022/04/16 09:00:08;;;;;;;3.70;1.70;;;8.80;88.90;;;;;;4977583;28;20253;-80
2022/04/16 09:02:34;;;;;;;3.00;1.73;;;8.70;89.00;;;;;;4975210;28;20577;-80
2022/04/16 09:05:03;;;;;;;2.23;1.70;;;8.40;89.30;;;;;;4974430;28;20477;-80
2022/04/16 09:07:28;;;;;;;2.30;1.60;;;8.10;89.00;;;;;;4993093;28;20182;-79
2022/04/16 09:10:04;;;;;;;4.10;2.20;;;7.90;90.60;;;;;;4976158;28;20422;-80
2022/04/16 09:12:36;;;;;;;4.17;2.00;;;7.80;90.60;;;;;;4977092;28;20202;-79
2022/04/16 09:15:09;;;;;;;3.27;2.13;;;7.90;90.50;;;;;;4976184;28;20430;-80
2022/04/16 09:17:36;;;;;;;2.60;2.00;;;7.80;90.80;;;;;;4975715;28;20974;-80
2022/04/16 09:20:10;;;;;;;4.30;2.30;;;7.80;90.90;;;;;;4975260;28;20989;-79
2022/04/16 09:22:38;;;;;;;4.53;2.70;;;7.70;90.80;;;;;;4975015;28;20446;-79
2022/04/16 09:25:14;;;;;;;8.70;3.00;;;7.60;90.80;;;;;;4974779;28;20453;-80
2022/04/16 09:27:52;;;;;;;4.20;2.27;;;7.80;92.10;;;;;;4975868;28;20553;-80
2022/04/16 09:30:30;;;;;;;3.97;2.40;;;8.10;92.60;;;;;;4974861;28;20457;-79
2022/04/16 09:32:57;;;;;;;3.07;2.20;;;8.30;90.50;;;;;;4974939;28;20465;-79
2022/04/16 09:35:27;;;;;;;2.87;2.30;;;8.20;89.20;;;;;;4975298;28;20438;-80
2022/04/16 09:38:01;;;;;;;4.70;2.30;;;8.20;89.80;;;;;;4991444;28;20970;-80
2022/04/16 09:40:29;;;;;;;2.23;2.00;;;8.30;89.80;;;;;;4974483;28;20430;-79
2022/04/16 09:42:57;;;;;;;3.00;2.43;;;8.40;89.90;;;;;;4974411;28;21006;-80
2022/04/16 09:45:22;;;;;;;5.63;2.47;;;8.70;90.00;;;;;;4976664;28;20434;-80
2022/04/16 09:47:49;;;;;;;5.00;2.50;;;9.10;90.70;;;;;;4976624;28;20424;-80
2022/04/16 09:50:17;;;;;;;4.63;3.40;;;9.40;88.70;;;;;;4980012;28;20504;-78
2022/04/16 09:52:43;;;;;;;2.73;2.10;;;9.60;87.80;;;;;;4979515;28;20488;-81
2022/04/16 09:55:10;;;;;;;2.77;2.37;;;9.70;87.20;;;;;;4979309;28;20844;-80
2022/04/16 09:57:39;;;;;;;4.53;2.13;;;9.90;88.20;;;;;;4981073;28;20926;-80
2022/04/16 10:00:05;;;;;;;4.07;2.30;;;10.20;86.60;;;;;;4978813;28;20777;-80
2022/04/16 10:02:31;;;;;;;4.33;3.20;;;10.10;84.20;;;;;;4979480;28;20568;-80
2022/04/16 10:05:01;;;;;;;7.80;2.50;;;10.10;87.00;;;;;;4978504;28;20976;-79
2022/04/16 10:07:27;;;;;;;3.87;2.33;;;10.20;84.80;;;;;;4979522;28;20222;-80
2022/04/16 10:09:55;;;;;;;3.50;2.33;;;10.30;86.80;;;;;;4979894;28;20452;-80
2022/04/16 10:15:06;;;;;;;1.90;1.80;;;10.40;86.20;;;;;;4980684;28;20441;-79
2022/04/16 10:17:46;;;;;;;3.67;2.50;;;10.20;85.60;;;;;;4995454;28;20429;-80
2022/04/16 10:20:23;;;;;;;2.33;1.70;;;9.90;84.90;;;;;;4978846;28;20438;-80
2022/04/16 10:22:57;;;;;;;2.23;2.03;;;9.70;85.90;;;;;;4979872;28;20405;-79
2022/04/16 10:25:34;;;;;;;1.80;1.80;;;9.40;85.90;;;;;;4978452;28;20849;-80
2022/04/16 10:28:05;;;;;;;4.70;2.03;;;9.20;86.30;;;;;;4994458;28;20440;-80
2022/04/16 10:30:41;;;;;;;2.83;1.80;;;9.20;86.20;;;;;;4979113;28;20772;-80
2022/04/16 10:33:17;;;;;;;3.50;2.00;;;9.50;88.30;;;;;;4978013;28;20461;-80
2022/04/16 10:35:58;;;;;;;3.57;2.70;;;9.90;86.70;;;;;;4979904;28;20437;-80
2022/04/16 10:38:33;;;;;;;3.47;2.27;;;10.30;86.50;;;;;;4980115;28;20421;-80
2022/04/16 10:41:10;;;;;;;5.10;2.03;;;10.50;85.60;;;;;;5010495;28;20688;-80
2022/04/16 10:43:35;;;;;;;2.97;1.60;;;10.80;86.10;;;;;;4978166;28;20848;-80
2022/04/16 10:46:09;;;;;;;2.47;2.10;;;10.90;84.70;;;;;;4977188;28;20461;-81
2022/04/16 10:48:41;;;;;;;4.10;2.20;;;11.10;86.90;;;;;;4976951;28;20335;-80
2022/04/16 10:51:07;;;;;;;4.30;1.97;;;11.40;84.70;;;;;;4977371;28;20428;-80
2022/04/16 10:53:34;;;;;;;5.03;1.90;;;11.40;83.70;;;;;;4976874;28;21063;-81
2022/04/16 10:56:30;;;;;;;2.50;1.83;;;11.30;83.20;;;;;;4978190;28;20445;-81
2022/04/16 10:59:01;;;;;;;6.47;2.40;;;10.80;83.30;;;;;;4980827;28;20763;-78
2022/04/16 11:01:29;;;;;;;3.87;1.73;;;10.60;84.70;;;;;;4976973;28;20477;-80
2022/04/16 11:03:56;;;;;;;2.90;1.70;;;10.40;84.50;;;;;;4976728;28;20449;-80
2022/04/16 11:06:34;;;;;;;2.90;1.70;;;10.10;83.60;;;;;;4976420;28;20460;-80
2022/04/16 11:08:59;;;;;;;5.63;1.93;;;9.80;83.20;;;;;;4976841;28;20430;-81
2022/04/16 11:11:25;;;;;;;2.73;1.70;;;9.90;85.40;;;;;;4975982;28;20425;-80
2022/04/16 11:13:51;;;;;;;2.90;2.10;;;10.30;85.00;;;;;;4976628;28;20277;-81
2022/04/16 11:16:22;;;;;;;3.20;2.07;;;10.80;84.00;;;;;;4976032;28;20418;-80
2022/04/16 11:18:48;;;;;;;3.83;2.20;;;11.10;83.20;;;;;;4976546;28;20178;-80
2022/04/16 11:21:24;;;;;;;2.90;1.90;;;11.30;83.10;;;;;;4976652;28;20798;-81
2022/04/16 11:23:52;;;;;;;9.87;2.33;;;11.20;82.30;;;;;;4976560;28;20962;-80
2022/04/16 11:34:40;;;;;;;2.27;1.77;;;11.20;84.40;;;;;;4979419;28;20457;-80
2022/04/16 11:37:07;;;;;;;3.60;2.70;;;11.60;82.00;;;;;;4976674;28;20419;-81
2022/04/16 11:39:32;;;;;;;3.13;2.40;;;12.00;81.10;;;;;;4976380;28;20414;-80
2022/04/16 11:41:59;;;;;;;2.10;1.80;;;12.30;81.90;;;;;;4976472;28;20802;-80
2022/04/16 11:44:30;;;;;;;5.60;5.30;;;12.60;79.90;;;;;;4975990;28;20198;-80
2022/04/16 11:46:55;;;;;;;5.27;4.67;;;12.70;79.70;;;;;;4976278;28;20414;-81
2022/04/16 11:49:22;;;;;;;5.40;4.27;;;12.90;79.80;;;;;;4976431;28;20465;-81
2022/04/16 11:51:48;;;;;;;8.47;5.10;;;13.00;80.40;;;;;;4976481;28;20210;-80
2022/04/16 11:54:13;;;;;;;4.67;2.43;;;13.30;81.00;;;;;;4976910;28;20438;-81
2022/04/16 11:56:49;;;;;;;3.63;2.70;;;13.50;79.20;;;;;;4976136;28;20182;-81
2022/04/16 11:59:23;;;;;;;5.70;3.60;;;13.70;78.60;;;;;;4976858;28;20206;-81
2022/04/16 12:01:57;;;;;;;3.70;2.00;;;13.80;77.50;;;;;;4975824;28;20483;-81
2022/04/16 12:04:42;;;;;;;3.20;1.83;;;14.00;78.50;;;;;;4976197;28;20986;-81
2022/04/16 12:07:12;;;;;;;2.30;1.67;;;14.00;76.80;;;;;;4975636;28;20448;-80
2022/04/16 12:09:49;;;;;;;12.40;9.30;;;13.50;74.50;;;;;;4975052;28;20433;-81
2022/04/16 12:12:16;;;;;;;18.67;13.97;;;13.30;78.00;;;;;;4975720;28;20843;-80
2022/04/16 12:14:49;;;;;;;74.27;29.70;;;13.40;79.20;;;;;;4975249;28;20442;-81
2022/04/16 12:17:26;;;;;;;4.23;2.83;;;13.70;79.10;;;;;;4976585;28;20462;-81
2022/04/16 12:20:11;;;;;;;27.57;9.90;;;13.90;76.20;;;;;;4974786;28;20786;-81
2022/04/16 12:22:47;;;;;;;19.33;6.90;;;14.00;76.10;;;;;;4974427;28;20454;-81
2022/04/16 12:25:16;;;;;;;10.17;3.87;;;14.10;75.50;;;;;;4974548;28;20445;-81
2022/04/16 12:27:47;;;;;;;12.57;4.73;;;13.80;75.00;;;;;;4973810;28;20441;-80
2022/04/16 12:30:14;;;;;;;3.60;1.73;;;13.70;76.40;;;;;;4975001;28;20978;-81
2022/04/16 12:32:40;;;;;;;2.20;1.90;;;13.90;75.70;;;;;;4974670;28;20464;-80
2022/04/16 12:35:06;;;;;;;4.37;1.63;;;14.10;77.00;;;;;;4973946;28;20438;-81
2022/04/16 12:37:32;;;;;;;2.53;1.70;;;14.40;77.20;;;;;;4974362;28;20433;-81
2022/04/16 12:39:57;;;;;;;2.00;1.70;;;14.60;74.90;;;;;;4974220;28;20417;-81
2022/04/16 12:42:23;;;;;;;2.80;1.90;;;14.70;74.60;;;;;;4973407;28;20183;-81
2022/04/16 12:44:48;;;;;;;2.53;1.50;;;14.90;74.90;;;;;;4973804;28;20245;-80
2022/04/16 12:47:14;;;;;;;2.50;1.60;;;15.00;72.70;;;;;;4973905;28;20170;-80
2022/04/16 12:49:40;;;;;;;3.20;1.50;;;15.20;72.80;;;;;;4972737;28;20229;-81
2022/04/16 12:52:06;;;;;;;1.83;1.40;;;15.10;74.00;;;;;;4972176;28;20293;-81
2022/04/16 12:54:31;;;;;;;3.50;1.90;;;15.40;73.40;;;;;;5005202;28;20434;-81
2022/04/16 12:56:57;;;;;;;2.47;1.43;;;15.50;73.20;;;;;;4972297;28;20484;-81
2022/04/16 12:59:22;;;;;;;1.47;1.40;;;15.70;73.70;;;;;;4971687;28;20174;-81
2022/04/16 13:01:48;;;;;;;2.37;1.30;;;15.90;71.40;;;;;;4971999;28;20640;-81
2022/04/16 13:04:13;;;;;;;2.67;1.60;;;16.00;73.50;;;;;;4972699;28;20692;-81
2022/04/16 13:06:39;;;;;;;2.57;1.60;;;16.00;70.50;;;;;;4972699;28;20178;-81
2022/04/16 13:09:04;;;;;;;2.60;1.63;;;15.90;73.10;;;;;;4972573;28;20213;-81
2022/04/16 13:11:31;;;;;;;3.67;2.03;;;15.80;72.30;;;;;;4972571;28;20190;-82
2022/04/16 13:13:57;;;;;;;2.53;1.93;;;15.70;71.30;;;;;;4972212;28;20209;-82
2022/04/16 13:16:22;;;;;;;2.20;1.77;;;15.80;71.40;;;;;;4972214;28;20422;-81